createdAt,value
2022-10-08T00:02:05.316Z,0.70
2022-10-08T00:04:33.036Z,0.80
2022-10-08T00:07:00.432Z,0.80
2022-10-08T00:09:27.854Z,0.70
2022-10-08T00:11:55.209Z,1.07
2022-10-08T00:14:23.415Z,0.70
2022-10-08T00:16:50.790Z,0.90
2022-10-08T00:19:18.102Z,0.80
2022-10-08T00:21:46.337Z,0.73
2022-10-08T00:24:15.572Z,0.90
2022-10-08T00:26:44.276Z,0.80
2022-10-08T00:29:13.517Z,0.70
2022-10-08T00:31:41.931Z,0.97
2022-10-08T00:34:12.207Z,0.70
2022-10-08T00:36:40.632Z,0.90
2022-10-08T00:39:09.844Z,0.83
2022-10-08T00:41:38.592Z,0.70
2022-10-08T00:44:24.847Z,1.03
2022-10-08T00:46:53.597Z,1.00
2022-10-08T00:49:21.963Z,0.90
2022-10-08T00:51:51.504Z,1.00
2022-10-08T00:54:19.852Z,0.83
2022-10-08T00:56:51.941Z,0.90
2022-10-08T00:59:20.376Z,0.93
2022-10-08T01:01:47.977Z,0.90
2022-10-08T01:04:16.565Z,1.00
2022-10-08T01:06:49.960Z,0.90
2022-10-08T01:09:24.728Z,0.80
2022-10-08T01:11:56.903Z,1.00
2022-10-08T01:14:30.304Z,0.80
2022-10-08T01:17:23.348Z,0.80
2022-10-08T01:20:05.757Z,0.97
2022-10-08T01:22:38.797Z,1.10
2022-10-08T01:25:34.152Z,1.20
2022-10-08T01:28:20.305Z,1.13
2022-10-08T01:31:00.683Z,1.00
2022-10-08T01:33:32.838Z,0.97
2022-10-08T01:36:01.858Z,0.87
2022-10-08T01:38:30.296Z,0.80
2022-10-08T01:41:00.344Z,0.90
2022-10-08T01:43:30.223Z,1.00
2022-10-08T01:45:59.797Z,0.90
2022-10-08T01:48:34.086Z,0.83
2022-10-08T01:51:07.126Z,0.80
2022-10-08T01:53:37.446Z,0.90
2022-10-08T01:56:06.681Z,0.80
2022-10-08T01:58:37.122Z,0.80
2022-10-08T02:01:08.351Z,1.10
2022-10-08T02:03:35.733Z,0.90
2022-10-08T02:06:04.212Z,1.00
2022-10-08T02:08:31.711Z,0.70
2022-10-08T02:10:59.138Z,1.00
2022-10-08T02:13:26.493Z,0.90
2022-10-08T02:16:11.422Z,1.10
2022-10-08T02:18:43.708Z,0.80
2022-10-08T02:21:30.171Z,0.90
2022-10-08T02:24:17.336Z,0.90
2022-10-08T02:26:51.709Z,1.00
2022-10-08T02:29:20.785Z,0.90
2022-10-08T02:31:50.567Z,0.90
2022-10-08T02:34:29.679Z,1.03
2022-10-08T02:37:06.040Z,1.00
2022-10-08T02:39:35.014Z,0.93
2022-10-08T02:42:04.546Z,0.90
2022-10-08T02:44:37.495Z,0.97
2022-10-08T02:47:06.788Z,0.80
2022-10-08T02:49:36.502Z,0.80
2022-10-08T02:52:05.590Z,1.00
2022-10-08T02:54:35.326Z,0.80
2022-10-08T02:57:09.506Z,0.80
2022-10-08T02:59:37.273Z,0.90
2022-10-08T03:02:05.402Z,1.00
2022-10-08T03:04:51.361Z,1.10
2022-10-08T03:07:18.854Z,0.83
2022-10-08T03:09:48.677Z,0.90
2022-10-08T03:12:16.102Z,0.70
2022-10-08T03:14:44.775Z,0.90
2022-10-08T03:17:14.283Z,0.80
2022-10-08T03:19:41.581Z,0.70
2022-10-08T03:22:08.840Z,1.13
2022-10-08T03:24:36.725Z,0.80
2022-10-08T03:27:04.360Z,0.80
2022-10-08T03:29:31.726Z,0.80
2022-10-08T03:31:59.002Z,0.90
2022-10-08T03:34:26.803Z,0.87
2022-10-08T03:36:54.211Z,0.90
2022-10-08T03:39:21.514Z,1.20
2022-10-08T03:41:48.862Z,1.00
2022-10-08T03:44:16.176Z,0.90
2022-10-08T03:46:43.515Z,0.70
2022-10-08T03:49:10.836Z,0.60
2022-10-08T03:51:38.153Z,0.80
2022-10-08T03:54:05.642Z,0.87
2022-10-08T03:56:32.944Z,0.93
2022-10-08T03:59:01.313Z,1.00
2022-10-08T04:01:29.387Z,0.70
2022-10-08T04:03:56.730Z,0.80
2022-10-08T04:06:24.331Z,0.80
2022-10-08T04:08:51.627Z,1.00
2022-10-08T04:11:19.268Z,0.77
2022-10-08T04:13:46.649Z,0.73
2022-10-08T04:16:18.095Z,1.00
2022-10-08T04:18:45.963Z,0.70
2022-10-08T04:21:14.791Z,0.90
2022-10-08T04:23:42.682Z,0.70
2022-10-08T04:26:10.811Z,0.90
2022-10-08T04:28:39.306Z,1.03
2022-10-08T04:31:08.092Z,0.90
2022-10-08T04:33:36.191Z,0.90
2022-10-08T04:36:10.484Z,1.00
2022-10-08T04:38:37.805Z,1.00
2022-10-08T04:41:06.360Z,0.80
2022-10-08T04:43:34.061Z,1.10
2022-10-08T04:46:01.447Z,0.80
2022-10-08T04:48:29.025Z,0.80
2022-10-08T04:50:57.321Z,0.70
2022-10-08T04:53:25.763Z,0.70
2022-10-08T04:55:56.556Z,0.90
2022-10-08T04:58:25.275Z,0.80
2022-10-08T05:00:52.731Z,0.77
2022-10-08T05:03:20.098Z,0.77
2022-10-08T05:05:47.463Z,0.70
2022-10-08T05:08:14.850Z,0.80
2022-10-08T05:10:48.783Z,1.10
2022-10-08T05:13:16.087Z,0.80
2022-10-08T05:15:43.522Z,0.90
2022-10-08T05:18:10.868Z,0.97
2022-10-08T05:20:38.201Z,0.90
2022-10-08T05:23:05.501Z,0.70
2022-10-08T05:25:33.772Z,0.90
2022-10-08T05:28:01.497Z,0.60
2022-10-08T05:30:29.003Z,0.60
2022-10-08T05:32:56.305Z,0.80
2022-10-08T05:35:23.615Z,0.60
2022-10-08T05:37:50.911Z,0.80
2022-10-08T05:40:18.262Z,0.90
2022-10-08T05:42:45.777Z,0.90
2022-10-08T05:45:13.467Z,0.90
2022-10-08T05:47:40.830Z,0.93
2022-10-08T05:50:08.440Z,0.77
2022-10-08T05:52:35.731Z,0.70
2022-10-08T05:55:03.031Z,0.80
2022-10-08T05:57:30.328Z,0.97
2022-10-08T05:59:57.622Z,0.70
2022-10-08T06:02:24.941Z,0.93
2022-10-08T06:04:52.730Z,0.70
2022-10-08T06:07:20.086Z,0.80
2022-10-08T06:09:47.403Z,0.97
2022-10-08T06:12:14.827Z,1.00
2022-10-08T06:14:42.226Z,0.90
2022-10-08T06:17:09.626Z,1.00
2022-10-08T06:19:37.382Z,1.00
2022-10-08T06:22:05.156Z,1.07
2022-10-08T06:24:32.562Z,1.00
2022-10-08T06:27:00.925Z,1.10
2022-10-08T06:29:28.305Z,1.00
2022-10-08T06:31:55.755Z,1.10
2022-10-08T06:34:23.250Z,1.00
2022-10-08T06:36:50.607Z,1.10
2022-10-08T06:39:18.429Z,1.00
2022-10-08T06:41:46.216Z,1.00
2022-10-08T06:44:14.734Z,0.90
2022-10-08T06:46:42.445Z,1.20
2022-10-08T06:49:10.673Z,1.00
2022-10-08T06:51:38.171Z,1.20
2022-10-08T06:54:08.270Z,1.17
2022-10-08T06:56:37.212Z,1.00
2022-10-08T06:59:05.274Z,1.00
2022-10-08T07:01:34.070Z,1.00
2022-10-08T07:04:02.186Z,1.07
2022-10-08T07:06:29.529Z,1.00
2022-10-08T07:08:57.858Z,1.10
2022-10-08T07:11:25.652Z,1.10
2022-10-08T07:13:53.009Z,1.00
2022-10-08T07:16:21.695Z,1.17
2022-10-08T07:18:50.229Z,0.90
2022-10-08T07:21:18.316Z,1.00
2022-10-08T07:23:45.770Z,1.10
2022-10-08T07:26:13.145Z,1.10
2022-10-08T07:28:42.346Z,1.23
2022-10-08T07:31:14.766Z,1.30
2022-10-08T07:33:42.310Z,0.90
2022-10-08T07:36:13.901Z,1.10
2022-10-08T07:38:41.687Z,1.10
2022-10-08T07:41:09.606Z,1.33
2022-10-08T07:43:37.374Z,1.10
2022-10-08T07:46:06.689Z,1.00
2022-10-08T07:48:34.542Z,1.10
2022-10-08T07:51:12.560Z,1.30
2022-10-08T07:53:40.645Z,1.10
2022-10-08T07:56:08.673Z,1.20
2022-10-08T07:58:36.437Z,0.90
2022-10-08T08:01:04.740Z,1.13
2022-10-08T08:03:32.253Z,1.33
2022-10-08T08:06:03.335Z,0.90
2022-10-08T08:08:30.981Z,1.17
2022-10-08T08:10:59.087Z,1.20
2022-10-08T08:13:26.899Z,1.40
2022-10-08T08:16:01.148Z,1.00
2022-10-08T08:18:29.845Z,1.10
2022-10-08T08:21:00.897Z,1.20
2022-10-08T08:23:31.924Z,1.17
2022-10-08T08:26:06.737Z,1.20
2022-10-08T08:28:34.301Z,1.20
2022-10-08T08:31:15.077Z,1.40
2022-10-08T08:33:42.894Z,1.20
2022-10-08T08:36:10.488Z,1.20
2022-10-08T08:38:38.266Z,1.23
2022-10-08T08:41:25.180Z,1.10
2022-10-08T08:44:02.880Z,1.40
2022-10-08T08:46:32.874Z,1.30
2022-10-08T08:49:03.257Z,1.20
2022-10-08T08:51:30.627Z,1.17
2022-10-08T08:53:57.981Z,1.20
2022-10-08T08:56:25.452Z,1.30
2022-10-08T08:59:01.128Z,1.30
2022-10-08T09:01:34.632Z,1.50
2022-10-08T09:04:16.864Z,1.30
2022-10-08T09:06:44.998Z,1.30
2022-10-08T09:09:27.822Z,1.17
2022-10-08T09:11:55.300Z,1.23
2022-10-08T09:14:22.570Z,1.30
2022-10-08T09:16:50.015Z,1.20
2022-10-08T09:19:17.341Z,1.30
2022-10-08T09:21:44.774Z,1.20
2022-10-08T09:24:12.243Z,1.30
2022-10-08T09:26:39.523Z,1.20
2022-10-08T09:29:07.264Z,1.53
2022-10-08T09:31:34.648Z,1.60
2022-10-08T09:34:06.720Z,1.30
2022-10-08T09:36:36.194Z,1.10
2022-10-08T09:39:05.593Z,1.30
2022-10-08T09:41:33.007Z,1.43
2022-10-08T09:44:36.011Z,1.10
2022-10-08T09:47:07.084Z,1.10
2022-10-08T09:49:35.221Z,1.23
2022-10-08T09:52:05.593Z,1.30
2022-10-08T09:54:37.818Z,1.10
2022-10-08T09:57:05.260Z,1.00
2022-10-08T09:59:36.009Z,1.20
2022-10-08T10:02:07.700Z,1.00
2022-10-08T10:04:37.294Z,1.13
2022-10-08T10:07:05.205Z,1.30
2022-10-08T10:09:35.279Z,1.50
2022-10-08T10:12:05.827Z,1.30
2022-10-08T10:14:47.104Z,1.00
2022-10-08T10:17:17.624Z,1.00
2022-10-08T10:19:56.332Z,1.50
2022-10-08T10:22:30.084Z,1.27
2022-10-08T10:25:02.405Z,1.30
2022-10-08T10:27:37.577Z,1.00
2022-10-08T10:30:07.134Z,1.20
2022-10-08T10:32:37.400Z,1.13
2022-10-08T10:35:07.270Z,1.20
2022-10-08T10:37:41.503Z,1.10
2022-10-08T10:40:08.856Z,0.90
2022-10-08T10:42:39.109Z,1.00
2022-10-08T10:45:18.900Z,0.80
2022-10-08T10:47:46.432Z,0.90
2022-10-08T10:50:14.724Z,0.90
2022-10-08T10:53:00.455Z,1.00
2022-10-08T10:55:27.713Z,1.00
2022-10-08T10:57:55.315Z,0.90
2022-10-08T11:00:31.308Z,1.10
2022-10-08T11:03:04.609Z,1.10
2022-10-08T11:05:33.884Z,1.10
2022-10-08T11:08:01.187Z,1.33
2022-10-08T11:10:47.420Z,0.80
2022-10-08T11:13:33.333Z,0.90
2022-10-08T11:16:12.122Z,1.17
2022-10-08T11:18:39.451Z,0.90
2022-10-08T11:21:12.741Z,1.20
2022-10-08T11:23:40.000Z,1.50
2022-10-08T11:26:25.960Z,1.10
2022-10-08T11:28:56.050Z,0.90
2022-10-08T11:31:43.342Z,0.90
2022-10-08T11:34:23.240Z,1.10
2022-10-08T11:36:59.919Z,1.33
2022-10-08T11:39:42.325Z,1.17
2022-10-08T11:42:23.645Z,1.30
2022-10-08T11:44:51.168Z,1.00
2022-10-08T11:47:37.432Z,1.10
2022-10-08T11:50:06.063Z,0.97
2022-10-08T11:52:34.034Z,0.87
2022-10-08T11:55:02.144Z,0.73
2022-10-08T11:58:06.039Z,1.00
2022-10-08T12:00:43.163Z,0.80
2022-10-08T12:03:27.474Z,0.83
2022-10-08T12:05:56.477Z,1.10
2022-10-08T12:08:42.731Z,0.80
2022-10-08T12:11:39.269Z,0.90
2022-10-08T12:14:13.086Z,0.70
2022-10-08T12:16:49.576Z,0.90
2022-10-08T12:19:35.616Z,1.00
2022-10-08T12:22:26.084Z,0.90
2022-10-08T12:25:04.785Z,1.07
2022-10-08T12:27:33.692Z,0.90
2022-10-08T12:30:11.968Z,0.70
2022-10-08T12:32:42.598Z,0.90
2022-10-08T12:35:21.745Z,1.00
2022-10-08T12:37:57.768Z,1.00
2022-10-08T12:40:35.370Z,0.80
2022-10-08T12:43:22.947Z,1.43
2022-10-08T12:45:53.137Z,0.80
2022-10-08T12:48:35.792Z,0.80
2022-10-08T12:51:10.979Z,0.90
2022-10-08T12:53:42.974Z,0.93
2022-10-08T12:56:15.247Z,0.90
2022-10-08T12:58:44.322Z,1.00
2022-10-08T13:01:13.057Z,0.90
2022-10-08T13:03:40.466Z,1.10
2022-10-08T13:06:19.011Z,1.10
2022-10-08T13:08:49.639Z,0.83
2022-10-08T13:11:17.204Z,1.00
2022-10-08T13:13:48.933Z,0.80
2022-10-08T13:16:21.058Z,1.03
2022-10-08T13:18:57.484Z,0.90
2022-10-08T13:21:34.566Z,1.00
2022-10-08T13:24:03.264Z,0.90
2022-10-08T13:26:38.087Z,0.70
2022-10-08T13:29:23.700Z,1.00
2022-10-08T13:31:57.100Z,1.00
2022-10-08T13:34:25.564Z,0.80
2022-10-08T13:36:55.580Z,1.07
2022-10-08T13:39:24.149Z,0.80
2022-10-08T13:42:01.685Z,1.07
2022-10-08T13:44:29.399Z,1.47
2022-10-08T13:47:01.356Z,0.90
2022-10-08T13:49:30.806Z,0.83
2022-10-08T13:51:58.843Z,0.80
2022-10-08T13:54:27.428Z,0.93
2022-10-08T13:56:55.013Z,1.07
2022-10-08T13:59:24.972Z,0.70
2022-10-08T14:01:55.599Z,1.00
2022-10-08T14:04:23.006Z,1.03
2022-10-08T14:06:51.529Z,0.90
2022-10-08T14:09:20.917Z,0.90
2022-10-08T14:11:55.016Z,1.10
2022-10-08T14:14:22.987Z,0.90
2022-10-08T14:16:50.556Z,1.00
2022-10-08T14:19:18.296Z,0.73
2022-10-08T14:21:45.620Z,0.97
2022-10-08T14:24:13.150Z,0.80
2022-10-08T14:26:40.462Z,1.10
2022-10-08T14:29:07.918Z,1.00
2022-10-08T14:31:35.377Z,0.87
2022-10-08T14:34:03.096Z,1.00
2022-10-08T14:36:32.418Z,0.80
2022-10-08T14:38:59.899Z,1.00
2022-10-08T14:41:27.287Z,0.70
2022-10-08T14:43:54.649Z,0.70
2022-10-08T14:46:22.009Z,0.90
2022-10-08T14:48:49.345Z,0.80
2022-10-08T14:51:16.716Z,0.90
2022-10-08T14:53:44.024Z,0.83
2022-10-08T14:56:12.796Z,0.80
2022-10-08T14:58:40.500Z,0.83
2022-10-08T15:01:07.823Z,0.83
2022-10-08T15:03:35.348Z,0.83
2022-10-08T15:06:02.730Z,0.83
2022-10-08T15:08:30.225Z,0.70
2022-10-08T15:10:57.517Z,0.80
2022-10-08T15:13:24.941Z,0.80
2022-10-08T15:15:52.195Z,0.70
2022-10-08T15:18:19.552Z,0.90
2022-10-08T15:20:54.528Z,0.80
2022-10-08T15:23:22.144Z,1.10
2022-10-08T15:26:08.768Z,0.90
2022-10-08T15:28:37.298Z,0.70
2022-10-08T15:31:06.507Z,0.60
2022-10-08T15:33:40.380Z,0.70
2022-10-08T15:36:27.187Z,1.00
2022-10-08T15:38:57.517Z,1.03
2022-10-08T15:41:25.102Z,0.90
2022-10-08T15:43:53.287Z,0.90
2022-10-08T15:46:21.509Z,1.07
2022-10-08T15:48:53.115Z,0.77
2022-10-08T15:51:21.081Z,0.87
2022-10-08T15:53:48.374Z,0.80
2022-10-08T15:56:15.779Z,0.77
2022-10-08T15:58:50.980Z,1.00
2022-10-08T16:01:19.608Z,0.80
2022-10-08T16:03:47.673Z,1.10
2022-10-08T16:06:16.489Z,0.70
2022-10-08T16:08:47.246Z,0.80
2022-10-08T16:11:15.956Z,0.80
2022-10-08T16:13:43.823Z,0.70
2022-10-08T16:16:14.975Z,0.80
2022-10-08T16:18:42.771Z,1.00
2022-10-08T16:21:10.942Z,0.70
2022-10-08T16:23:38.522Z,0.80
2022-10-08T16:26:07.515Z,1.27
2022-10-08T16:28:36.057Z,3.20
2022-10-08T16:31:04.260Z,3.10
2022-10-08T16:33:31.596Z,1.40
2022-10-08T16:36:02.770Z,1.97
2022-10-08T16:38:30.482Z,1.33
2022-10-08T16:41:09.672Z,1.77
2022-10-08T16:43:37.046Z,1.90
2022-10-08T16:46:04.373Z,3.00
2022-10-08T16:48:31.788Z,2.60
2022-10-08T16:51:03.105Z,2.47
2022-10-08T16:53:30.407Z,2.03
2022-10-08T16:56:02.008Z,2.33
2022-10-08T16:58:29.330Z,2.00
2022-10-08T17:00:56.800Z,1.87
2022-10-08T17:03:24.292Z,2.73
2022-10-08T17:05:51.594Z,4.13
2022-10-08T17:08:18.886Z,2.37
2022-10-08T17:10:46.176Z,2.10
2022-10-08T17:13:13.518Z,1.57
2022-10-08T17:15:40.809Z,1.87
2022-10-08T17:18:08.260Z,1.33
2022-10-08T17:20:35.630Z,1.53
2022-10-08T17:23:02.903Z,1.30
2022-10-08T17:25:30.289Z,1.53
2022-10-08T17:27:57.564Z,1.70
2022-10-08T17:30:24.936Z,1.40
2022-10-08T17:32:52.238Z,2.30
2022-10-08T17:35:19.544Z,1.90
2022-10-08T17:37:46.855Z,1.40
2022-10-08T17:40:14.170Z,2.10
2022-10-08T17:42:41.602Z,1.27
2022-10-08T17:45:09.288Z,1.10
2022-10-08T17:47:36.756Z,1.20
2022-10-08T17:50:04.244Z,1.67
2022-10-08T17:52:31.531Z,1.40
2022-10-08T17:54:58.847Z,1.43
2022-10-08T17:57:26.140Z,1.50
2022-10-08T17:59:53.444Z,1.47
2022-10-08T18:02:20.981Z,1.40
2022-10-08T18:04:48.289Z,1.10
2022-10-08T18:07:15.845Z,1.17
2022-10-08T18:09:43.129Z,1.30
2022-10-08T18:12:10.421Z,1.30
2022-10-08T18:14:37.754Z,1.57
2022-10-08T18:17:05.081Z,1.23
2022-10-08T18:19:32.385Z,1.17
2022-10-08T18:21:59.713Z,1.43
2022-10-08T18:24:27.142Z,1.10
2022-10-08T18:26:54.509Z,1.20
2022-10-08T18:29:21.800Z,1.23
2022-10-08T18:31:49.119Z,1.23
2022-10-08T18:34:17.454Z,0.93
2022-10-08T18:36:45.105Z,1.17
2022-10-08T18:39:13.743Z,1.67
2022-10-08T18:41:42.838Z,1.10
2022-10-08T18:44:14.355Z,1.20
2022-10-08T18:46:44.659Z,1.43
2022-10-08T18:49:13.655Z,1.27
2022-10-08T18:51:40.977Z,1.20
2022-10-08T18:54:09.681Z,1.30
2022-10-08T18:56:39.401Z,1.13
2022-10-08T18:59:07.914Z,1.13
2022-10-08T19:01:36.877Z,1.10
2022-10-08T19:04:05.315Z,1.10
2022-10-08T19:06:33.939Z,1.30
2022-10-08T19:09:03.214Z,1.07
2022-10-08T19:11:33.656Z,1.30
2022-10-08T19:14:01.642Z,0.90
2022-10-08T19:16:29.248Z,1.30
2022-10-08T19:19:02.458Z,1.53
2022-10-08T19:21:30.622Z,1.10
2022-10-08T19:23:58.433Z,0.97
2022-10-08T19:26:26.953Z,1.10
2022-10-08T19:28:54.828Z,1.40
2022-10-08T19:31:23.737Z,1.03
2022-10-08T19:33:52.259Z,1.40
2022-10-08T19:36:20.177Z,1.20
2022-10-08T19:38:54.461Z,1.17
2022-10-08T19:41:23.483Z,1.20
2022-10-08T19:43:51.567Z,1.30
2022-10-08T19:46:19.216Z,1.60
2022-10-08T19:48:50.539Z,1.50
2022-10-08T19:51:18.459Z,1.20
2022-10-08T19:53:45.802Z,1.20
2022-10-08T19:56:13.542Z,0.97
2022-10-08T19:58:46.282Z,1.40
2022-10-08T20:01:16.898Z,1.33
2022-10-08T20:03:44.408Z,1.37
2022-10-08T20:06:20.352Z,1.37
2022-10-08T20:08:50.761Z,1.13
2022-10-08T20:11:19.734Z,1.20
2022-10-08T20:13:48.301Z,1.23
2022-10-08T20:16:17.457Z,1.50
2022-10-08T20:18:52.165Z,1.60
2022-10-08T20:21:20.392Z,1.30
2022-10-08T20:23:47.879Z,1.80
2022-10-08T20:26:20.350Z,1.97
2022-10-08T20:28:48.708Z,1.27
2022-10-08T20:31:20.952Z,1.10
2022-10-08T20:33:48.478Z,1.17
2022-10-08T20:36:17.006Z,1.30
2022-10-08T20:38:44.898Z,1.37
2022-10-08T20:41:12.282Z,1.50
2022-10-08T20:43:40.206Z,1.23
2022-10-08T20:46:08.997Z,1.40
2022-10-08T20:48:36.889Z,1.13
2022-10-08T20:51:08.727Z,1.17
2022-10-08T20:53:36.307Z,1.10
2022-10-08T20:56:07.625Z,1.30
2022-10-08T20:58:35.695Z,1.00
2022-10-08T21:01:04.125Z,1.33
2022-10-08T21:03:31.652Z,1.10
2022-10-08T21:06:00.665Z,1.50
2022-10-08T21:08:28.080Z,1.10
2022-10-08T21:10:55.537Z,1.13
2022-10-08T21:13:22.955Z,1.37
2022-10-08T21:15:50.330Z,1.23
2022-10-08T21:18:17.650Z,1.13
2022-10-08T21:20:45.208Z,1.03
2022-10-08T21:23:12.522Z,1.23
2022-10-08T21:25:39.903Z,1.30
2022-10-08T21:28:07.277Z,1.47
2022-10-08T21:30:34.540Z,1.10
2022-10-08T21:33:01.836Z,1.40
2022-10-08T21:35:29.164Z,1.10
2022-10-08T21:37:56.437Z,1.40
2022-10-08T21:40:23.734Z,1.20
2022-10-08T21:42:51.207Z,1.50
2022-10-08T21:45:18.629Z,1.20
2022-10-08T21:47:45.980Z,1.20
2022-10-08T21:50:13.315Z,1.03
2022-10-08T21:52:40.613Z,1.50
2022-10-08T21:55:08.145Z,1.07
2022-10-08T21:57:35.501Z,1.13
2022-10-08T22:00:02.814Z,1.37
2022-10-08T22:02:40.385Z,1.13
2022-10-08T22:05:07.748Z,1.10
2022-10-08T22:07:35.049Z,1.43
2022-10-08T22:10:02.575Z,1.23
2022-10-08T22:12:29.889Z,1.20
2022-10-08T22:14:57.349Z,1.30
2022-10-08T22:17:24.840Z,1.37
2022-10-08T22:19:52.168Z,1.10
2022-10-08T22:22:19.493Z,1.20
2022-10-08T22:24:46.822Z,1.20
2022-10-08T22:27:14.174Z,1.40
2022-10-08T22:29:41.481Z,1.40
2022-10-08T22:32:08.880Z,1.03
2022-10-08T22:34:36.201Z,1.27
2022-10-08T22:37:03.639Z,1.30
2022-10-08T22:39:31.247Z,1.20
2022-10-08T22:41:58.540Z,1.40
2022-10-08T22:44:25.855Z,1.17
2022-10-08T22:46:53.208Z,1.33
2022-10-08T22:49:20.504Z,1.30
2022-10-08T22:51:47.855Z,1.43
2022-10-08T22:54:15.163Z,1.20
2022-10-08T22:56:42.532Z,1.30
2022-10-08T22:59:10.583Z,1.03
2022-10-08T23:01:37.954Z,1.23
2022-10-08T23:04:05.426Z,1.20
2022-10-08T23:06:33.691Z,1.07
2022-10-08T23:09:07.856Z,1.40
2022-10-08T23:11:35.507Z,1.23
2022-10-08T23:14:02.918Z,1.10
2022-10-08T23:16:31.559Z,1.43
2022-10-08T23:19:03.478Z,0.93
2022-10-08T23:21:31.062Z,1.37
2022-10-08T23:23:58.826Z,1.13
2022-10-08T23:26:26.584Z,1.33
2022-10-08T23:28:55.350Z,1.20
2022-10-08T23:31:24.439Z,0.97
2022-10-08T23:33:52.426Z,1.30
2022-10-08T23:36:21.891Z,1.10
2022-10-08T23:38:49.485Z,1.03
2022-10-08T23:41:17.197Z,1.10
2022-10-08T23:43:46.354Z,1.47
2022-10-08T23:46:15.170Z,1.60
2022-10-08T23:48:42.613Z,1.20
2022-10-08T23:51:11.286Z,1.27
2022-10-08T23:53:38.998Z,1.23
2022-10-08T23:56:06.493Z,1.23
2022-10-08T23:58:33.833Z,1.40
